createdAt,value
2023-05-08T00:02:21.795Z,11.70
2023-05-08T00:04:49.573Z,13.73
2023-05-08T00:07:17.454Z,14.68
2023-05-08T00:09:46.076Z,12.25
2023-05-08T00:12:13.910Z,15.63
2023-05-08T00:14:41.800Z,14.38
2023-05-08T00:17:09.642Z,17.58
2023-05-08T00:19:38.920Z,14.20
2023-05-08T00:22:06.819Z,13.13
2023-05-08T00:24:34.623Z,12.75
2023-05-08T00:27:02.368Z,12.85
2023-05-08T00:29:30.135Z,14.55
2023-05-08T00:31:58.038Z,13.05
2023-05-08T00:34:25.924Z,14.13
2023-05-08T00:36:57.607Z,15.80
2023-05-08T00:39:25.476Z,13.65
2023-05-08T00:41:53.921Z,12.63
2023-05-08T00:44:21.774Z,13.30
2023-05-08T00:46:50.197Z,15.77
2023-05-08T00:49:18.815Z,16.88
2023-05-08T00:51:49.271Z,13.98
2023-05-08T00:54:18.561Z,15.15
2023-05-08T00:56:46.992Z,14.52
2023-05-08T00:59:17.501Z,13.32
2023-05-08T01:01:47.797Z,17.00
2023-05-08T01:04:33.576Z,15.15
2023-05-08T01:07:02.706Z,15.98
2023-05-08T01:09:32.045Z,18.23
2023-05-08T01:12:08.739Z,16.65
2023-05-08T01:14:48.719Z,17.98
2023-05-08T01:17:25.734Z,18.02
2023-05-08T01:20:15.347Z,15.40
2023-05-08T01:23:06.454Z,14.30
2023-05-08T01:26:12.746Z,17.40
2023-05-08T01:29:11.336Z,16.52
2023-05-08T01:31:53.133Z,18.60
2023-05-08T01:34:26.004Z,18.30
2023-05-08T01:36:59.359Z,16.58
2023-05-08T01:39:35.922Z,16.10
2023-05-08T01:42:09.195Z,14.70
2023-05-08T01:44:42.581Z,15.63
2023-05-08T01:47:12.694Z,18.50
2023-05-08T01:49:46.035Z,17.40
2023-05-08T01:52:29.094Z,16.55
2023-05-08T01:54:59.920Z,14.23
2023-05-08T01:57:31.094Z,15.73
2023-05-08T02:00:02.246Z,15.23
2023-05-08T02:02:38.679Z,17.95
2023-05-08T02:05:11.950Z,14.82
2023-05-08T02:07:42.131Z,16.45
2023-05-08T02:10:12.703Z,18.13
2023-05-08T02:12:43.217Z,15.98
2023-05-08T02:15:14.896Z,16.13
2023-05-08T02:17:44.894Z,17.30
2023-05-08T02:20:15.856Z,14.85
2023-05-08T02:22:45.603Z,14.45
2023-05-08T02:25:14.765Z,16.75
2023-05-08T02:27:45.483Z,15.20
2023-05-08T02:30:16.087Z,15.98
2023-05-08T02:32:45.468Z,14.55
2023-05-08T02:35:17.273Z,19.20
2023-05-08T02:37:47.800Z,17.50
2023-05-08T02:40:18.062Z,16.15
2023-05-08T02:42:47.520Z,16.50
2023-05-08T02:45:15.632Z,16.25
2023-05-08T02:47:49.511Z,17.25
2023-05-08T02:50:24.539Z,16.42
2023-05-08T02:52:59.634Z,17.92
2023-05-08T02:55:37.133Z,15.07
2023-05-08T02:58:13.101Z,19.98
2023-05-08T03:00:48.594Z,16.30
2023-05-08T03:03:24.088Z,15.27
2023-05-08T03:05:56.903Z,17.23
2023-05-08T03:08:30.685Z,19.27
2023-05-08T03:11:02.361Z,16.02
2023-05-08T03:13:35.450Z,14.75
2023-05-08T03:18:36.073Z,16.75
2023-05-08T03:21:07.473Z,14.75
2023-05-08T03:23:38.037Z,17.55
2023-05-08T03:26:07.128Z,16.95
2023-05-08T03:28:37.666Z,14.55
2023-05-08T03:31:07.122Z,15.63
2023-05-08T03:33:38.202Z,15.57
2023-05-08T03:36:08.298Z,16.70
2023-05-08T03:38:36.835Z,18.35
2023-05-08T03:41:05.913Z,15.95
2023-05-08T03:43:34.504Z,16.33
2023-05-08T03:46:06.544Z,18.45
2023-05-08T03:48:35.401Z,17.00
2023-05-08T03:51:04.791Z,14.73
2023-05-08T03:53:36.098Z,15.70
2023-05-08T03:56:05.461Z,19.40
2023-05-08T03:58:39.566Z,15.48
2023-05-08T04:01:12.997Z,17.55
2023-05-08T04:03:57.910Z,16.30
2023-05-08T04:06:35.669Z,17.55
2023-05-08T04:09:14.316Z,18.05
2023-05-08T04:11:49.165Z,15.60
2023-05-08T04:14:20.270Z,17.27
2023-05-08T04:16:51.441Z,16.33
2023-05-08T04:19:24.202Z,18.02
2023-05-08T04:21:55.775Z,15.07
2023-05-08T04:24:28.896Z,14.32
2023-05-08T04:26:58.122Z,14.50
2023-05-08T04:29:26.819Z,15.38
2023-05-08T04:31:55.587Z,15.88
2023-05-08T04:34:24.286Z,15.93
2023-05-08T04:36:52.747Z,16.40
2023-05-08T04:39:22.488Z,14.18
2023-05-08T04:41:52.739Z,17.98
2023-05-08T04:44:21.372Z,17.65
2023-05-08T04:46:50.234Z,13.57
2023-05-08T04:49:18.702Z,16.20
2023-05-08T04:51:46.494Z,14.07
2023-05-08T04:54:15.067Z,17.77
2023-05-08T04:56:43.106Z,14.90
2023-05-08T04:59:14.202Z,16.60
2023-05-08T05:01:43.978Z,12.95
2023-05-08T05:04:12.397Z,11.63
2023-05-08T05:06:40.692Z,14.95
2023-05-08T05:09:09.221Z,13.15
2023-05-08T05:11:37.447Z,12.27
2023-05-08T05:14:06.222Z,17.23
2023-05-08T05:16:35.906Z,14.93
2023-05-08T05:19:04.919Z,18.08
2023-05-08T05:21:33.568Z,13.60
2023-05-08T05:24:01.740Z,14.23
2023-05-08T05:26:29.492Z,13.23
2023-05-08T05:28:57.664Z,16.33
2023-05-08T05:31:25.832Z,13.18
2023-05-08T05:33:55.415Z,14.18
2023-05-08T05:36:23.476Z,16.48
2023-05-08T05:38:51.408Z,14.13
2023-05-08T05:41:19.453Z,17.88
2023-05-08T05:43:47.545Z,12.57
2023-05-08T05:46:15.683Z,15.27
2023-05-08T05:48:43.722Z,13.80
2023-05-08T05:51:13.750Z,16.42
2023-05-08T05:53:41.869Z,13.30
2023-05-08T05:56:09.635Z,17.02
2023-05-08T05:58:37.682Z,12.95
2023-05-08T06:01:05.679Z,16.75
2023-05-08T06:03:33.723Z,18.08
2023-05-08T06:06:02.164Z,13.73
2023-05-08T06:08:31.435Z,14.48
2023-05-08T06:10:59.513Z,12.18
2023-05-08T06:13:27.863Z,15.63
2023-05-08T06:15:57.601Z,16.05
2023-05-08T06:18:26.427Z,14.27
2023-05-08T06:20:58.866Z,14.55
2023-05-08T06:23:27.133Z,16.50
2023-05-08T06:25:56.715Z,12.32
2023-05-08T06:28:26.101Z,11.52
2023-05-08T06:30:54.263Z,13.45
2023-05-08T06:33:23.582Z,14.15
2023-05-08T06:35:52.621Z,17.63
2023-05-08T06:38:20.464Z,13.90
2023-05-08T06:40:50.160Z,13.48
2023-05-08T06:43:19.537Z,20.67
2023-05-08T06:45:47.408Z,23.75
2023-05-08T06:48:15.313Z,15.20
2023-05-08T06:50:43.494Z,15.43
2023-05-08T06:53:11.344Z,18.27
2023-05-08T06:55:39.085Z,16.35
2023-05-08T06:58:07.142Z,23.55
2023-05-08T07:00:36.460Z,14.63
2023-05-08T07:03:04.543Z,16.38
2023-05-08T07:05:32.599Z,19.35
2023-05-08T07:08:00.579Z,13.35
2023-05-08T07:10:28.855Z,15.18
2023-05-08T07:12:56.707Z,14.95
2023-05-08T07:15:26.417Z,16.00
2023-05-08T07:17:56.525Z,18.95
2023-05-08T07:20:25.447Z,16.33
2023-05-08T07:22:53.528Z,12.60
2023-05-08T07:25:21.357Z,15.43
2023-05-08T07:27:49.229Z,15.15
2023-05-08T07:30:17.544Z,20.50
2023-05-08T07:32:45.397Z,22.63
2023-05-08T07:35:15.608Z,13.27
2023-05-08T07:37:44.453Z,13.30
2023-05-08T07:40:12.857Z,16.40
2023-05-08T07:42:41.923Z,16.15
2023-05-08T07:45:11.910Z,15.13
2023-05-08T07:47:40.456Z,13.02
2023-05-08T07:50:08.797Z,15.55
2023-05-08T07:52:38.786Z,14.07
2023-05-08T07:55:07.979Z,17.25
2023-05-08T07:57:38.019Z,14.32
2023-05-08T08:00:07.012Z,17.95
2023-05-08T08:02:41.372Z,18.80
2023-05-08T08:05:10.316Z,15.13
2023-05-08T08:07:39.665Z,15.55
2023-05-08T08:10:09.348Z,16.13
2023-05-08T08:12:37.250Z,20.88
2023-05-08T08:15:06.109Z,23.13
2023-05-08T08:17:33.935Z,21.10
2023-05-08T08:20:01.920Z,17.58
2023-05-08T08:22:29.832Z,19.58
2023-05-08T08:24:59.296Z,15.35
2023-05-08T08:27:27.180Z,19.55
2023-05-08T08:30:08.343Z,18.38
2023-05-08T08:32:43.282Z,16.98
2023-05-08T08:35:12.110Z,16.73
2023-05-08T08:37:40.255Z,15.60
2023-05-08T08:40:10.620Z,18.08
2023-05-08T08:42:38.557Z,18.55
2023-05-08T08:45:07.844Z,15.70
2023-05-08T08:47:38.361Z,19.45
2023-05-08T08:50:11.322Z,20.40
2023-05-08T08:52:49.402Z,15.18
2023-05-08T08:55:19.532Z,15.65
2023-05-08T08:58:00.030Z,15.77
2023-05-08T09:00:31.270Z,17.63
2023-05-08T09:02:59.418Z,18.00
2023-05-08T09:05:27.628Z,15.43
2023-05-08T09:07:56.528Z,25.73
2023-05-08T09:10:26.832Z,17.02
2023-05-08T09:12:54.936Z,15.43
2023-05-08T09:15:22.859Z,16.75
2023-05-08T09:17:51.013Z,15.73
2023-05-08T09:20:19.668Z,17.20
2023-05-08T09:22:47.696Z,16.02
2023-05-08T09:25:15.907Z,15.77
2023-05-08T09:27:45.409Z,19.38
2023-05-08T09:30:15.522Z,17.83
2023-05-08T09:32:45.126Z,17.75
2023-05-08T09:35:13.705Z,17.77
2023-05-08T09:37:43.557Z,19.20
2023-05-08T09:40:16.587Z,16.92
2023-05-08T09:42:46.172Z,17.85
2023-05-08T09:45:27.635Z,18.65
2023-05-08T09:47:55.678Z,19.75
2023-05-08T09:50:23.886Z,15.95
2023-05-08T09:52:51.872Z,17.80
2023-05-08T09:55:20.119Z,19.52
2023-05-08T09:57:57.593Z,16.98
2023-05-08T10:00:26.434Z,17.35
2023-05-08T10:03:00.232Z,16.23
2023-05-08T10:05:31.759Z,17.35
2023-05-08T10:08:18.441Z,17.83
2023-05-08T10:10:46.699Z,18.67
2023-05-08T10:13:16.537Z,21.52
2023-05-08T10:15:45.983Z,20.42
2023-05-08T10:18:18.147Z,22.92
2023-05-08T10:20:48.659Z,18.45
2023-05-08T10:23:19.154Z,21.85
2023-05-08T10:25:48.751Z,18.42
2023-05-08T10:28:28.643Z,21.60
2023-05-08T10:31:00.873Z,20.27
2023-05-08T10:33:32.452Z,19.77
2023-05-08T10:36:01.091Z,19.05
2023-05-08T10:38:29.048Z,18.00
2023-05-08T10:41:01.456Z,20.67
2023-05-08T10:43:32.061Z,16.40
2023-05-08T10:46:10.494Z,20.50
2023-05-08T10:48:49.139Z,21.27
2023-05-08T10:51:22.918Z,22.52
2023-05-08T10:53:54.871Z,20.30
2023-05-08T10:56:27.357Z,19.60
2023-05-08T10:58:59.330Z,20.80
2023-05-08T11:01:28.260Z,22.35
2023-05-08T11:03:57.016Z,20.52
2023-05-08T11:06:45.935Z,21.60
2023-05-08T11:09:22.418Z,22.40
2023-05-08T11:12:06.806Z,21.98
2023-05-08T11:14:37.905Z,22.65
2023-05-08T11:17:07.354Z,21.60
2023-05-08T11:19:36.488Z,25.30
2023-05-08T11:22:32.713Z,40.20
2023-05-08T11:25:03.044Z,45.72
2023-05-08T11:28:13.823Z,23.77
2023-05-08T11:30:45.738Z,32.50
2023-05-08T11:33:18.395Z,30.80
2023-05-08T11:35:52.543Z,23.80
2023-05-08T11:38:35.745Z,23.48
2023-05-08T11:41:08.509Z,24.02
2023-05-08T11:44:09.562Z,27.67
2023-05-08T11:46:43.230Z,24.75
2023-05-08T11:49:17.274Z,25.20
2023-05-08T11:51:47.172Z,30.30
2023-05-08T11:54:17.817Z,26.30
2023-05-08T11:56:47.964Z,24.33
2023-05-08T11:59:16.493Z,26.85
2023-05-08T12:01:53.515Z,28.02
2023-05-08T12:04:24.617Z,21.67
2023-05-08T12:06:58.517Z,20.38
2023-05-08T12:09:26.323Z,26.95
2023-05-08T12:11:58.980Z,28.05
2023-05-08T12:14:26.886Z,42.17
2023-05-08T12:16:56.144Z,50.28
2023-05-08T12:19:24.109Z,23.13
2023-05-08T12:21:51.974Z,27.30
2023-05-08T12:24:23.060Z,70.88
2023-05-08T12:26:54.268Z,27.35
2023-05-08T12:29:22.798Z,23.48
2023-05-08T12:31:51.029Z,24.10
2023-05-08T12:34:21.359Z,25.70
2023-05-08T12:36:49.160Z,25.75
2023-05-08T12:39:18.782Z,23.15
2023-05-08T12:41:50.204Z,26.83
2023-05-08T12:44:20.183Z,23.75
2023-05-08T12:46:50.997Z,21.77
2023-05-08T12:49:28.677Z,21.77
2023-05-08T12:52:07.054Z,23.35
2023-05-08T12:54:36.360Z,21.95
2023-05-08T12:57:10.187Z,20.95
2023-05-08T12:59:38.154Z,22.70
2023-05-08T13:02:06.183Z,67.68
2023-05-08T13:04:39.470Z,39.03
2023-05-08T13:09:35.173Z,23.83
2023-05-08T13:12:03.254Z,39.25
2023-05-08T13:14:31.086Z,23.77
2023-05-08T13:16:59.849Z,26.30
2023-05-08T13:19:28.660Z,23.02
2023-05-08T13:21:58.073Z,24.45
2023-05-08T13:24:26.860Z,21.33
2023-05-08T13:26:54.695Z,22.60
2023-05-08T13:29:22.501Z,22.67
2023-05-08T13:31:50.328Z,21.08
2023-05-08T13:34:18.689Z,19.08
2023-05-08T13:36:46.881Z,16.75
2023-05-08T13:39:16.240Z,20.70
2023-05-08T13:41:44.197Z,20.55
2023-05-08T13:44:12.136Z,41.95
2023-05-08T13:46:39.906Z,27.17
2023-05-08T13:49:07.835Z,20.52
2023-05-08T13:51:35.624Z,22.08
2023-05-08T13:54:03.390Z,18.13
2023-05-08T13:56:32.595Z,17.83
2023-05-08T13:59:00.392Z,16.52
2023-05-08T14:01:28.631Z,18.42
2023-05-08T14:03:56.871Z,16.10
2023-05-08T14:06:24.797Z,22.10
2023-05-08T14:08:55.317Z,23.35
2023-05-08T14:11:24.750Z,18.60
2023-05-08T14:13:53.895Z,17.80
2023-05-08T14:16:22.054Z,15.40
2023-05-08T14:18:49.855Z,15.45
2023-05-08T14:21:17.880Z,16.73
2023-05-08T14:23:45.785Z,14.23
2023-05-08T14:26:14.276Z,16.17
2023-05-08T14:28:42.132Z,13.70
2023-05-08T14:31:11.337Z,10.75
2023-05-08T14:33:39.205Z,15.10
2023-05-08T14:36:07.674Z,11.45
2023-05-08T14:38:35.428Z,11.02
2023-05-08T14:41:04.904Z,8.15
2023-05-08T14:43:32.964Z,10.70
2023-05-08T14:46:00.976Z,9.75
2023-05-08T14:48:30.145Z,14.57
2023-05-08T14:50:58.621Z,12.40
2023-05-08T14:53:26.882Z,11.75
2023-05-08T14:55:55.063Z,9.45
2023-05-08T14:58:23.438Z,9.98
2023-05-08T15:00:51.286Z,10.88
2023-05-08T15:03:19.437Z,12.27
2023-05-08T15:05:48.959Z,10.00
2023-05-08T15:08:17.354Z,10.70
2023-05-08T15:10:45.201Z,11.50
2023-05-08T15:13:13.414Z,9.30
2023-05-08T15:15:41.281Z,9.10
2023-05-08T15:18:09.257Z,15.10
2023-05-08T15:20:37.293Z,13.00
2023-05-08T15:23:06.585Z,12.80
2023-05-08T15:25:34.775Z,11.70
2023-05-08T15:28:02.718Z,11.15
2023-05-08T15:30:30.644Z,11.40
2023-05-08T15:32:58.625Z,10.57
2023-05-08T15:35:26.647Z,12.43
2023-05-08T15:37:54.460Z,10.68
2023-05-08T15:40:23.722Z,12.55
2023-05-08T15:42:52.598Z,13.65
2023-05-08T15:45:20.735Z,11.75
2023-05-08T15:47:48.750Z,13.55
2023-05-08T15:50:16.826Z,11.98
2023-05-08T15:52:44.671Z,11.73
2023-05-08T15:55:12.522Z,11.35
2023-05-08T15:57:41.745Z,11.88
2023-05-08T16:00:11.069Z,13.07
2023-05-08T16:02:39.304Z,12.02
2023-05-08T16:05:08.032Z,13.88
2023-05-08T16:07:35.887Z,31.50
2023-05-08T16:10:05.343Z,38.10
2023-05-08T16:12:34.646Z,41.67
2023-05-08T16:15:03.867Z,29.45
2023-05-08T16:17:31.696Z,32.97
2023-05-08T16:20:00.774Z,32.22
2023-05-08T16:22:28.713Z,29.13
2023-05-08T16:24:56.939Z,22.70
2023-05-08T16:27:25.051Z,23.48
2023-05-08T16:29:52.864Z,19.80
2023-05-08T16:32:22.355Z,20.25
2023-05-08T16:34:50.214Z,23.58
2023-05-08T16:37:18.045Z,20.77
2023-05-08T16:39:46.005Z,22.17
2023-05-08T16:42:13.935Z,20.67
2023-05-08T16:44:41.978Z,18.63
2023-05-08T16:47:10.254Z,17.35
2023-05-08T16:49:40.687Z,12.55
2023-05-08T16:52:08.690Z,9.15
2023-05-08T16:54:36.558Z,7.68
2023-05-08T16:57:04.663Z,7.65
2023-05-08T16:59:33.101Z,9.13
2023-05-08T17:02:00.926Z,8.85
2023-05-08T17:04:30.735Z,5.95
2023-05-08T17:07:00.546Z,6.70
2023-05-08T17:09:29.025Z,5.85
2023-05-08T17:11:58.372Z,6.60
2023-05-08T17:14:26.435Z,5.50
2023-05-08T17:16:54.304Z,5.05
2023-05-08T17:19:22.304Z,7.13
2023-05-08T17:21:50.770Z,6.38
2023-05-08T17:24:20.360Z,7.75
2023-05-08T17:26:48.766Z,4.95
2023-05-08T17:29:19.540Z,7.28
2023-05-08T17:31:47.411Z,5.50
2023-05-08T17:34:15.416Z,7.00
2023-05-08T17:36:43.882Z,7.18
2023-05-08T17:39:12.562Z,8.32
2023-05-08T17:41:42.226Z,11.05
2023-05-08T17:44:10.135Z,8.00
2023-05-08T17:46:38.189Z,9.40
2023-05-08T17:49:06.203Z,10.52
2023-05-08T17:51:34.057Z,10.32
2023-05-08T17:54:02.250Z,9.50
2023-05-08T17:56:31.775Z,11.20
2023-05-08T17:59:01.148Z,10.02
2023-05-08T18:01:30.668Z,9.15
2023-05-08T18:03:58.830Z,11.80
2023-05-08T18:06:26.826Z,9.70
2023-05-08T18:08:54.647Z,12.75
2023-05-08T18:11:25.262Z,16.75
2023-05-08T18:13:55.552Z,11.70
2023-05-08T18:16:24.611Z,9.18
2023-05-08T18:18:52.926Z,8.93
2023-05-08T18:21:20.723Z,7.00
2023-05-08T18:23:48.487Z,9.85
2023-05-08T18:26:16.469Z,7.68
2023-05-08T18:28:45.244Z,10.45
2023-05-08T18:31:13.651Z,10.00
2023-05-08T18:33:43.346Z,9.55
2023-05-08T18:36:11.177Z,7.90
2023-05-08T18:38:41.776Z,10.52
2023-05-08T18:41:09.527Z,11.60
2023-05-08T18:43:37.297Z,9.30
2023-05-08T18:46:12.467Z,11.93
2023-05-08T18:48:42.208Z,9.50
2023-05-08T18:51:10.184Z,10.23
2023-05-08T18:53:38.913Z,11.77
2023-05-08T18:56:07.436Z,10.48
2023-05-08T18:58:35.561Z,13.00
2023-05-08T19:01:03.485Z,10.95
2023-05-08T19:03:32.460Z,11.90
2023-05-08T19:06:01.791Z,11.98
2023-05-08T19:08:29.678Z,12.40
2023-05-08T19:10:57.798Z,16.60
2023-05-08T19:13:25.743Z,13.60
2023-05-08T19:15:54.394Z,13.55
2023-05-08T19:18:22.352Z,14.30
2023-05-08T19:20:50.646Z,12.65
2023-05-08T19:23:20.076Z,14.15
2023-05-08T19:25:48.008Z,16.13
2023-05-08T19:28:15.995Z,14.35
2023-05-08T19:30:44.187Z,14.90
2023-05-08T19:33:12.056Z,17.73
2023-05-08T19:35:39.874Z,13.80
2023-05-08T19:38:07.799Z,17.98
2023-05-08T19:40:48.406Z,19.40
2023-05-08T19:43:23.429Z,16.90
2023-05-08T19:45:51.829Z,15.95
2023-05-08T19:48:20.409Z,18.45
2023-05-08T19:50:48.691Z,16.88
2023-05-08T19:53:19.287Z,17.75
2023-05-08T19:55:49.554Z,16.55
2023-05-08T19:58:18.224Z,17.23
2023-05-08T20:00:50.962Z,19.23
2023-05-08T20:03:19.452Z,17.00
2023-05-08T20:05:47.641Z,15.27
2023-05-08T20:08:15.545Z,16.85
2023-05-08T20:10:43.712Z,14.57
2023-05-08T20:13:13.129Z,14.05
2023-05-08T20:15:40.940Z,13.13
2023-05-08T20:18:09.022Z,16.05
2023-05-08T20:20:36.936Z,11.63
2023-05-08T20:23:04.749Z,12.15
2023-05-08T20:25:32.541Z,14.85
2023-05-08T20:28:00.682Z,13.57
2023-05-08T20:30:30.008Z,11.10
2023-05-08T20:33:04.453Z,12.15
2023-05-08T20:35:32.949Z,14.70
2023-05-08T20:38:00.669Z,14.20
2023-05-08T20:40:28.751Z,11.82
2023-05-08T20:42:56.730Z,12.77
2023-05-08T20:45:25.448Z,14.82
2023-05-08T20:47:54.715Z,13.43
2023-05-08T20:50:22.934Z,14.88
2023-05-08T20:52:52.101Z,11.68
2023-05-08T20:55:20.516Z,15.02
2023-05-08T20:57:49.133Z,14.48
2023-05-08T21:00:17.327Z,15.77
2023-05-08T21:02:47.188Z,16.60
2023-05-08T21:05:16.977Z,19.08
2023-05-08T21:07:45.408Z,14.10
2023-05-08T21:10:14.616Z,16.70
2023-05-08T21:12:44.496Z,20.98
2023-05-08T21:15:13.196Z,17.58
2023-05-08T21:17:41.191Z,17.55
2023-05-08T21:20:10.515Z,22.90
2023-05-08T21:22:39.664Z,19.35
2023-05-08T21:25:17.397Z,18.63
2023-05-08T21:27:46.303Z,19.38
2023-05-08T21:30:16.674Z,22.23
2023-05-08T21:32:46.440Z,23.30
2023-05-08T21:35:15.766Z,19.58
2023-05-08T21:37:46.175Z,27.77
2023-05-08T21:40:15.123Z,23.70
2023-05-08T21:42:43.526Z,20.58
2023-05-08T21:45:14.918Z,22.73
2023-05-08T21:47:43.109Z,22.05
2023-05-08T21:50:11.410Z,21.38
2023-05-08T21:52:39.214Z,27.63
2023-05-08T21:55:10.223Z,26.52
2023-05-08T21:57:38.608Z,26.00
2023-05-08T22:00:09.009Z,24.17
2023-05-08T22:02:47.531Z,24.38
2023-05-08T22:05:15.952Z,28.50
2023-05-08T22:07:44.600Z,24.05
2023-05-08T22:10:14.047Z,25.30
2023-05-08T22:12:42.561Z,30.45
2023-05-08T22:15:25.574Z,21.63
2023-05-08T22:17:57.692Z,23.05
2023-05-08T22:20:26.162Z,42.95
2023-05-08T22:22:54.001Z,53.67
2023-05-08T22:25:23.378Z,61.42
2023-05-08T22:27:51.149Z,56.72
2023-05-08T22:30:19.048Z,57.22
2023-05-08T22:32:54.434Z,60.53
2023-05-08T22:35:23.672Z,64.68
2023-05-08T22:37:51.592Z,74.63
2023-05-08T22:40:20.008Z,70.18
2023-05-08T22:42:49.544Z,70.72
2023-05-08T22:45:17.635Z,73.45
2023-05-08T22:47:45.629Z,72.50
2023-05-08T22:50:13.884Z,75.75
2023-05-08T22:52:42.164Z,69.28
2023-05-08T22:55:10.590Z,71.50
2023-05-08T22:57:38.395Z,76.53
2023-05-08T23:00:10.517Z,76.80
2023-05-08T23:02:38.448Z,71.60
2023-05-08T23:05:07.432Z,73.75
2023-05-08T23:07:35.598Z,77.00
2023-05-08T23:10:03.640Z,78.88
2023-05-08T23:12:31.688Z,82.63
2023-05-08T23:14:59.575Z,78.35
2023-05-08T23:17:28.866Z,77.70
2023-05-08T23:19:56.676Z,79.57
2023-05-08T23:22:24.614Z,75.03
2023-05-08T23:24:52.520Z,76.85
2023-05-08T23:27:20.471Z,80.25
2023-05-08T23:29:48.641Z,70.57
2023-05-08T23:32:16.912Z,70.32
2023-05-08T23:34:46.199Z,77.97
2023-05-08T23:37:16.692Z,73.35
2023-05-08T23:39:44.598Z,74.43
2023-05-08T23:42:13.335Z,79.13
2023-05-08T23:44:41.053Z,76.70
2023-05-08T23:47:08.888Z,72.53
2023-05-08T23:49:36.720Z,67.45
2023-05-08T23:52:06.658Z,65.95
2023-05-08T23:54:34.495Z,75.60
2023-05-08T23:57:02.235Z,73.47
2023-05-08T23:59:30.049Z,70.47
